This is the latest recevied weather packets stored in our database for station/object IW1RID-3. If no packets are shown the sender has not sent any weather packets the latest 10 day(s).
| Time | Temp. | Humidity | Pressure | Rain* | Wind** | Luminosity | Snow |
|---|---|---|---|---|---|---|---|
| 1777903884 | 21.67° C | 58% | 1073.2 hPa | - | - | - | - |
| 1777902679 | 21.11° C | 59% | 1073.5 hPa | - | - | - | - |
| 1777899063 | 20.56° C | 60% | 1074.2 hPa | - | - | - | - |
| 1777897858 | 20° C | 61% | 1074.3 hPa | - | - | - | - |
| 1777896653 | 19.44° C | 64% | 1074.4 hPa | - | - | - | - |
| 1777895447 | 18.89° C | 64% | 1074.5 hPa | - | - | - | - |
| 1777894243 | 20° C | 62% | 1074.6 hPa | - | - | - | - |
| 1777893037 | 20.56° C | 59% | 1074.8 hPa | - | - | - | - |
| 1777891832 | 22.22° C | 55% | 1074.9 hPa | - | - | - | - |
| 1777890627 | 20° C | 60% | 1075.2 hPa | - | - | - | - |
| 1777889423 | 21.67° C | 55% | 1075.2 hPa | - | - | - | - |
| 1777888219 | 20.56° C | 44% | 1075.2 hPa | - | - | - | - |
| 1777887012 | 20.56° C | 41% | 1075.4 hPa | - | - | - | - |
| 1777885807 | 20° C | 43% | 1075.3 hPa | - | - | - | - |
| 1777884602 | 18.33° C | 50% | 1075.5 hPa | - | - | - | - |
| 1777883397 | 18.33° C | 50% | 1076.1 hPa | - | - | - | - |
| 1777882193 | 16.67° C | 56% | 1076.2 hPa | - | - | - | - |
| 1777880987 | 15.56° C | 61% | 1075.9 hPa | - | - | - | - |
| 1777879782 | 15.56° C | 63% | 1076.1 hPa | - | - | - | - |
| 1777878578 | 15° C | 62% | 1076.1 hPa | - | - | - | - |
| 1777877373 | 15° C | 62% | 1075.7 hPa | - | - | - | - |
| 1777876169 | 14.44° C | 63% | 1075.4 hPa | - | - | - | - |
| 1777874963 | 13.89° C | 64% | 1075.1 hPa | - | - | - | - |
| 1777873758 | 13.89° C | 64% | 1075 hPa | - | - | - | - |
| 1777872553 | 13.89° C | 64% | 1074.9 hPa | - | - | - | - |
* Rain since midnight (hover to see other rain measurements)
** Current wind speed in m/s (hover to see current wind gust speed)